sensor_id;sensor_type;location;lat;lon;timestamp;temperature;humidity
60495;DHT22;46342;49.046;11.920;2022-10-17T00:01:19;17.30;70.60
60495;DHT22;46342;49.046;11.920;2022-10-17T00:03:45;17.40;70.80
60495;DHT22;46342;49.046;11.920;2022-10-17T00:06:13;17.30;70.70
60495;DHT22;46342;49.046;11.920;2022-10-17T00:08:40;17.30;71.00
60495;DHT22;46342;49.046;11.920;2022-10-17T00:11:13;17.30;71.00
60495;DHT22;46342;49.046;11.920;2022-10-17T00:13:39;17.30;72.50
60495;DHT22;46342;49.046;11.920;2022-10-17T00:16:05;17.30;71.20
60495;DHT22;46342;49.046;11.920;2022-10-17T00:18:31;17.20;71.20
60495;DHT22;46342;49.046;11.920;2022-10-17T00:20:56;17.20;71.30
60495;DHT22;46342;49.046;11.920;2022-10-17T00:23:22;17.20;71.40
60495;DHT22;46342;49.046;11.920;2022-10-17T00:25:57;17.20;71.40
60495;DHT22;46342;49.046;11.920;2022-10-17T00:28:23;17.20;71.80
60495;DHT22;46342;49.046;11.920;2022-10-17T00:30:57;17.20;71.40
60495;DHT22;46342;49.046;11.920;2022-10-17T00:33:24;17.20;71.80
60495;DHT22;46342;49.046;11.920;2022-10-17T00:35:50;17.10;71.50
60495;DHT22;46342;49.046;11.920;2022-10-17T00:38:15;17.20;71.60
60495;DHT22;46342;49.046;11.920;2022-10-17T00:40:41;17.20;71.40
60495;DHT22;46342;49.046;11.920;2022-10-17T00:43:16;17.10;71.30
60495;DHT22;46342;49.046;11.920;2022-10-17T00:45:42;17.10;71.50
60495;DHT22;46342;49.046;11.920;2022-10-17T00:48:10;17.10;71.20
60495;DHT22;46342;49.046;11.920;2022-10-17T00:50:38;17.10;71.40
60495;DHT22;46342;49.046;11.920;2022-10-17T00:53:07;17.00;71.30
60495;DHT22;46342;49.046;11.920;2022-10-17T00:55:40;17.00;71.30
60495;DHT22;46342;49.046;11.920;2022-10-17T00:58:07;17.00;71.40
60495;DHT22;46342;49.046;11.920;2022-10-17T01:00:32;17.00;71.20
60495;DHT22;46342;49.046;11.920;2022-10-17T01:02:58;16.90;71.10
60495;DHT22;46342;49.046;11.920;2022-10-17T01:05:24;16.90;71.00
60495;DHT22;46342;49.046;11.920;2022-10-17T01:07:51;16.90;71.00
60495;DHT22;46342;49.046;11.920;2022-10-17T01:10:18;16.90;71.00
60495;DHT22;46342;49.046;11.920;2022-10-17T01:13:03;16.80;70.80
60495;DHT22;46342;49.046;11.920;2022-10-17T01:18:36;16.80;70.80
60495;DHT22;46342;49.046;11.920;2022-10-17T01:31:46;16.60;70.50
60495;DHT22;46342;49.046;11.920;2022-10-17T01:37:00;16.60;70.60
60495;DHT22;46342;49.046;11.920;2022-10-17T01:39:41;16.60;70.50
60495;DHT22;46342;49.046;11.920;2022-10-17T01:45:16;16.50;71.40
60495;DHT22;46342;49.046;11.920;2022-10-17T01:47:45;16.50;70.40
60495;DHT22;46342;49.046;11.920;2022-10-17T01:50:23;16.40;71.20
60495;DHT22;46342;49.046;11.920;2022-10-17T01:52:56;16.40;70.50
60495;DHT22;46342;49.046;11.920;2022-10-17T01:55:37;16.40;70.40
60495;DHT22;46342;49.046;11.920;2022-10-17T01:58:11;16.40;70.40
60495;DHT22;46342;49.046;11.920;2022-10-17T02:00:39;16.30;70.30
60495;DHT22;46342;49.046;11.920;2022-10-17T02:03:09;16.30;70.30
60495;DHT22;46342;49.046;11.920;2022-10-17T02:05:40;16.20;70.20
60495;DHT22;46342;49.046;11.920;2022-10-17T02:08:07;16.20;70.10
60495;DHT22;46342;49.046;11.920;2022-10-17T02:13:29;16.20;70.10
60495;DHT22;46342;49.046;11.920;2022-10-17T02:27:39;16.00;69.70
60495;DHT22;46342;49.046;11.920;2022-10-17T02:30:14;15.90;69.80
60495;DHT22;46342;49.046;11.920;2022-10-17T02:32:51;15.90;70.60
60495;DHT22;46342;49.046;11.920;2022-10-17T02:35:18;15.80;69.60
60495;DHT22;46342;49.046;11.920;2022-10-17T02:37:46;15.80;69.60
60495;DHT22;46342;49.046;11.920;2022-10-17T02:40:14;15.70;69.60
60495;DHT22;46342;49.046;11.920;2022-10-17T02:42:43;15.70;69.60
60495;DHT22;46342;49.046;11.920;2022-10-17T02:45:11;15.70;69.70
60495;DHT22;46342;49.046;11.920;2022-10-17T02:47:56;15.60;69.60
60495;DHT22;46342;49.046;11.920;2022-10-17T02:50:32;15.60;69.60
60495;DHT22;46342;49.046;11.920;2022-10-17T02:53:10;15.60;69.60
60495;DHT22;46342;49.046;11.920;2022-10-17T02:55:43;15.60;69.60
60495;DHT22;46342;49.046;11.920;2022-10-17T02:58:20;15.50;69.50
60495;DHT22;46342;49.046;11.920;2022-10-17T03:00:48;15.50;69.60
60495;DHT22;46342;49.046;11.920;2022-10-17T03:03:21;15.50;69.50
60495;DHT22;46342;49.046;11.920;2022-10-17T03:05:47;15.40;69.50
60495;DHT22;46342;49.046;11.920;2022-10-17T03:08:12;15.40;69.50
60495;DHT22;46342;49.046;11.920;2022-10-17T03:10:38;15.40;69.60
60495;DHT22;46342;49.046;11.920;2022-10-17T03:13:04;15.30;69.50
60495;DHT22;46342;49.046;11.920;2022-10-17T03:15:29;15.40;69.60
60495;DHT22;46342;49.046;11.920;2022-10-17T03:17:55;15.30;69.50
60495;DHT22;46342;49.046;11.920;2022-10-17T03:20:20;15.30;69.50
60495;DHT22;46342;49.046;11.920;2022-10-17T03:22:46;15.20;69.40
60495;DHT22;46342;49.046;11.920;2022-10-17T03:25:11;15.20;69.40
60495;DHT22;46342;49.046;11.920;2022-10-17T03:27:37;15.20;69.40
60495;DHT22;46342;49.046;11.920;2022-10-17T03:30:03;15.10;69.40
60495;DHT22;46342;49.046;11.920;2022-10-17T03:32:29;15.10;69.40
60495;DHT22;46342;49.046;11.920;2022-10-17T03:34:57;15.10;69.40
60495;DHT22;46342;49.046;11.920;2022-10-17T03:37:22;15.10;69.40
60495;DHT22;46342;49.046;11.920;2022-10-17T03:39:48;15.00;69.10
60495;DHT22;46342;49.046;11.920;2022-10-17T03:42:13;15.00;69.20
60495;DHT22;46342;49.046;11.920;2022-10-17T03:44:39;14.90;69.10
60495;DHT22;46342;49.046;11.920;2022-10-17T03:47:04;14.90;69.20
60495;DHT22;46342;49.046;11.920;2022-10-17T03:49:30;14.90;69.30
60495;DHT22;46342;49.046;11.920;2022-10-17T03:51:55;14.90;69.30
60495;DHT22;46342;49.046;11.920;2022-10-17T03:54:21;14.80;69.20
60495;DHT22;46342;49.046;11.920;2022-10-17T03:56:47;14.80;69.20
60495;DHT22;46342;49.046;11.920;2022-10-17T03:59:13;14.80;69.20
60495;DHT22;46342;49.046;11.920;2022-10-17T04:01:39;14.80;69.20
60495;DHT22;46342;49.046;11.920;2022-10-17T04:04:05;14.70;70.00
60495;DHT22;46342;49.046;11.920;2022-10-17T04:06:31;14.70;69.20
60495;DHT22;46342;49.046;11.920;2022-10-17T04:08:57;14.70;69.20
60495;DHT22;46342;49.046;11.920;2022-10-17T04:11:23;14.70;69.20
60495;DHT22;46342;49.046;11.920;2022-10-17T04:13:56;14.70;69.30
60495;DHT22;46342;49.046;11.920;2022-10-17T04:16:22;14.60;69.20
60495;DHT22;46342;49.046;11.920;2022-10-17T04:18:53;14.60;69.20
60495;DHT22;46342;49.046;11.920;2022-10-17T04:21:19;14.60;69.30
60495;DHT22;46342;49.046;11.920;2022-10-17T04:23:45;14.60;69.30
60495;DHT22;46342;49.046;11.920;2022-10-17T04:26:11;14.60;69.30
60495;DHT22;46342;49.046;11.920;2022-10-17T04:28:36;14.50;69.30
60495;DHT22;46342;49.046;11.920;2022-10-17T04:31:07;14.40;70.10
60495;DHT22;46342;49.046;11.920;2022-10-17T04:33:34;14.40;69.30
60495;DHT22;46342;49.046;11.920;2022-10-17T04:36:05;14.40;70.30
60495;DHT22;46342;49.046;11.920;2022-10-17T04:38:31;14.40;69.50
60495;DHT22;46342;49.046;11.920;2022-10-17T04:40:59;14.30;69.30
60495;DHT22;46342;49.046;11.920;2022-10-17T04:43:28;14.30;69.40
60495;DHT22;46342;49.046;11.920;2022-10-17T04:45:55;14.30;69.50
60495;DHT22;46342;49.046;11.920;2022-10-17T04:48:21;14.30;69.50
60495;DHT22;46342;49.046;11.920;2022-10-17T04:50:58;14.30;69.50
60495;DHT22;46342;49.046;11.920;2022-10-17T04:53:24;14.30;69.80
60495;DHT22;46342;49.046;11.920;2022-10-17T04:55:50;14.20;69.50
60495;DHT22;46342;49.046;11.920;2022-10-17T04:58:16;14.20;69.50
60495;DHT22;46342;49.046;11.920;2022-10-17T05:00:42;14.20;69.50
60495;DHT22;46342;49.046;11.920;2022-10-17T05:03:08;14.20;69.50
60495;DHT22;46342;49.046;11.920;2022-10-17T05:05:36;14.20;69.50
60495;DHT22;46342;49.046;11.920;2022-10-17T05:08:03;14.30;69.80
60495;DHT22;46342;49.046;11.920;2022-10-17T05:10:29;14.20;69.70
60495;DHT22;46342;49.046;11.920;2022-10-17T05:12:55;14.10;70.60
60495;DHT22;46342;49.046;11.920;2022-10-17T05:15:20;14.20;69.90
60495;DHT22;46342;49.046;11.920;2022-10-17T05:17:46;14.20;69.80
60495;DHT22;46342;49.046;11.920;2022-10-17T05:20:12;14.10;69.70
60495;DHT22;46342;49.046;11.920;2022-10-17T05:22:37;14.10;69.70
60495;DHT22;46342;49.046;11.920;2022-10-17T05:25:04;14.10;69.80
60495;DHT22;46342;49.046;11.920;2022-10-17T05:27:29;14.10;69.90
60495;DHT22;46342;49.046;11.920;2022-10-17T05:29:55;14.10;70.00
60495;DHT22;46342;49.046;11.920;2022-10-17T05:32:20;14.10;70.10
60495;DHT22;46342;49.046;11.920;2022-10-17T05:34:46;14.10;70.20
60495;DHT22;46342;49.046;11.920;2022-10-17T05:37:11;14.10;70.30
60495;DHT22;46342;49.046;11.920;2022-10-17T05:39:37;14.10;71.20
60495;DHT22;46342;49.046;11.920;2022-10-17T05:42:02;14.10;70.40
60495;DHT22;46342;49.046;11.920;2022-10-17T05:44:28;14.10;70.40
60495;DHT22;46342;49.046;11.920;2022-10-17T05:46:54;14.10;70.50
60495;DHT22;46342;49.046;11.920;2022-10-17T05:49:19;14.10;70.60
60495;DHT22;46342;49.046;11.920;2022-10-17T05:51:45;14.10;70.60
60495;DHT22;46342;49.046;11.920;2022-10-17T05:54:10;14.10;70.60
60495;DHT22;46342;49.046;11.920;2022-10-17T05:56:36;14.10;70.60
60495;DHT22;46342;49.046;11.920;2022-10-17T05:59:01;14.00;70.60
60495;DHT22;46342;49.046;11.920;2022-10-17T06:01:27;14.10;70.60
60495;DHT22;46342;49.046;11.920;2022-10-17T06:03:53;14.10;70.70
60495;DHT22;46342;49.046;11.920;2022-10-17T06:06:18;14.10;70.70
60495;DHT22;46342;49.046;11.920;2022-10-17T06:08:44;14.10;70.70
60495;DHT22;46342;49.046;11.920;2022-10-17T06:11:11;14.10;70.70
60495;DHT22;46342;49.046;11.920;2022-10-17T06:13:37;14.00;70.70
60495;DHT22;46342;49.046;11.920;2022-10-17T06:16:03;14.00;70.70
60495;DHT22;46342;49.046;11.920;2022-10-17T06:18:29;14.00;70.70
60495;DHT22;46342;49.046;11.920;2022-10-17T06:21:04;14.00;70.80
60495;DHT22;46342;49.046;11.920;2022-10-17T06:23:29;14.10;71.10
60495;DHT22;46342;49.046;11.920;2022-10-17T06:26:00;14.00;70.80
60495;DHT22;46342;49.046;11.920;2022-10-17T06:28:26;14.00;71.10
60495;DHT22;46342;49.046;11.920;2022-10-17T06:30:51;14.10;71.10
60495;DHT22;46342;49.046;11.920;2022-10-17T06:33:17;14.10;71.20
60495;DHT22;46342;49.046;11.920;2022-10-17T06:35:43;14.10;71.20
60495;DHT22;46342;49.046;11.920;2022-10-17T06:38:08;14.10;71.30
60495;DHT22;46342;49.046;11.920;2022-10-17T06:40:34;14.10;71.40
60495;DHT22;46342;49.046;11.920;2022-10-17T06:43:00;14.10;71.50
60495;DHT22;46342;49.046;11.920;2022-10-17T06:45:25;14.10;71.60
60495;DHT22;46342;49.046;11.920;2022-10-17T06:47:52;14.10;71.60
60495;DHT22;46342;49.046;11.920;2022-10-17T06:50:18;14.20;71.90
60495;DHT22;46342;49.046;11.920;2022-10-17T06:52:43;14.20;72.00
60495;DHT22;46342;49.046;11.920;2022-10-17T06:55:09;14.10;72.00
60495;DHT22;46342;49.046;11.920;2022-10-17T06:57:34;14.20;73.10
60495;DHT22;46342;49.046;11.920;2022-10-17T07:00:00;14.20;72.20
60495;DHT22;46342;49.046;11.920;2022-10-17T07:02:26;14.20;72.40
60495;DHT22;46342;49.046;11.920;2022-10-17T07:04:51;14.30;72.60
60495;DHT22;46342;49.046;11.920;2022-10-17T07:07:17;14.40;73.00
60495;DHT22;46342;49.046;11.920;2022-10-17T07:09:43;14.30;73.20
60495;DHT22;46342;49.046;11.920;2022-10-17T07:12:08;14.40;73.60
60495;DHT22;46342;49.046;11.920;2022-10-17T07:14:36;14.60;73.90
60495;DHT22;46342;49.046;11.920;2022-10-17T07:17:02;14.50;73.90
60495;DHT22;46342;49.046;11.920;2022-10-17T07:19:28;14.50;74.20
60495;DHT22;46342;49.046;11.920;2022-10-17T07:21:54;14.60;74.70
60495;DHT22;46342;49.046;11.920;2022-10-17T07:24:19;14.70;75.10
60495;DHT22;46342;49.046;11.920;2022-10-17T07:26:45;14.80;75.40
60495;DHT22;46342;49.046;11.920;2022-10-17T07:29:11;14.80;75.70
60495;DHT22;46342;49.046;11.920;2022-10-17T07:31:36;14.90;75.90
60495;DHT22;46342;49.046;11.920;2022-10-17T07:34:02;15.00;76.20
60495;DHT22;46342;49.046;11.920;2022-10-17T07:36:28;15.10;76.50
60495;DHT22;46342;49.046;11.920;2022-10-17T07:38:53;15.20;76.70
60495;DHT22;46342;49.046;11.920;2022-10-17T07:41:19;15.20;76.90
60495;DHT22;46342;49.046;11.920;2022-10-17T07:43:45;15.30;77.00
60495;DHT22;46342;49.046;11.920;2022-10-17T07:46:11;15.40;77.20
60495;DHT22;46342;49.046;11.920;2022-10-17T07:48:37;15.50;77.40
60495;DHT22;46342;49.046;11.920;2022-10-17T07:51:06;15.60;77.60
60495;DHT22;46342;49.046;11.920;2022-10-17T07:53:38;15.60;77.80
60495;DHT22;46342;49.046;11.920;2022-10-17T07:56:05;15.70;78.20
60495;DHT22;46342;49.046;11.920;2022-10-17T07:58:31;15.80;77.90
60495;DHT22;46342;49.046;11.920;2022-10-17T08:01:03;15.90;77.80
60495;DHT22;46342;49.046;11.920;2022-10-17T08:03:29;16.00;78.50
60495;DHT22;46342;49.046;11.920;2022-10-17T08:06:00;16.00;77.90
60495;DHT22;46342;49.046;11.920;2022-10-17T08:08:26;16.10;78.80
60495;DHT22;46342;49.046;11.920;2022-10-17T08:10:53;16.20;78.00
60495;DHT22;46342;49.046;11.920;2022-10-17T08:13:20;16.30;78.10
60495;DHT22;46342;49.046;11.920;2022-10-17T08:15:45;16.40;78.50
60495;DHT22;46342;49.046;11.920;2022-10-17T08:18:13;16.40;78.00
60495;DHT22;46342;49.046;11.920;2022-10-17T08:20:39;16.50;78.10
60495;DHT22;46342;49.046;11.920;2022-10-17T08:23:05;16.60;78.20
60495;DHT22;46342;49.046;11.920;2022-10-17T08:25:30;16.60;78.00
60495;DHT22;46342;49.046;11.920;2022-10-17T08:27:57;16.70;78.00
60495;DHT22;46342;49.046;11.920;2022-10-17T08:30:22;16.70;77.90
60495;DHT22;46342;49.046;11.920;2022-10-17T08:32:48;16.80;77.90
60495;DHT22;46342;49.046;11.920;2022-10-17T08:35:13;16.80;77.70
60495;DHT22;46342;49.046;11.920;2022-10-17T08:37:39;16.90;77.80
60495;DHT22;46342;49.046;11.920;2022-10-17T08:40:05;17.00;78.00
60495;DHT22;46342;49.046;11.920;2022-10-17T08:48:40;17.20;79.30
60495;DHT22;46342;49.046;11.920;2022-10-17T08:51:18;17.30;78.10
60495;DHT22;46342;49.046;11.920;2022-10-17T08:53:48;17.30;78.70
60495;DHT22;46342;49.046;11.920;2022-10-17T08:56:22;17.30;77.70
60495;DHT22;46342;49.046;11.920;2022-10-17T08:58:48;17.30;77.70
60495;DHT22;46342;49.046;11.920;2022-10-17T09:15:36;17.70;79.20
60495;DHT22;46342;49.046;11.920;2022-10-17T09:21:18;17.80;78.70
60495;DHT22;46342;49.046;11.920;2022-10-17T09:23:52;17.80;78.30
60495;DHT22;46342;49.046;11.920;2022-10-17T09:26:18;17.80;78.10
60495;DHT22;46342;49.046;11.920;2022-10-17T09:28:50;17.80;78.40
60495;DHT22;46342;49.046;11.920;2022-10-17T09:31:24;17.90;77.80
60495;DHT22;46342;49.046;11.920;2022-10-17T09:33:54;17.90;78.10
60495;DHT22;46342;49.046;11.920;2022-10-17T09:36:25;18.00;77.80
60495;DHT22;46342;49.046;11.920;2022-10-17T09:38:54;18.00;78.00
60495;DHT22;46342;49.046;11.920;2022-10-17T09:44:29;18.10;77.90
60495;DHT22;46342;49.046;11.920;2022-10-17T09:49:44;18.30;78.50
60495;DHT22;46342;49.046;11.920;2022-10-17T09:54:57;18.40;77.90
60495;DHT22;46342;49.046;11.920;2022-10-17T09:57:24;18.50;78.10
60495;DHT22;46342;49.046;11.920;2022-10-17T09:59:59;18.50;77.50
60495;DHT22;46342;49.046;11.920;2022-10-17T10:02:27;18.60;77.70
60495;DHT22;46342;49.046;11.920;2022-10-17T10:05:04;18.60;77.40
60495;DHT22;46342;49.046;11.920;2022-10-17T10:07:38;18.60;77.40
60495;DHT22;46342;49.046;11.920;2022-10-17T10:10:06;18.70;78.00
60495;DHT22;46342;49.046;11.920;2022-10-17T10:12:36;18.70;78.10
60495;DHT22;46342;49.046;11.920;2022-10-17T10:15:30;18.80;78.20
60495;DHT22;46342;49.046;11.920;2022-10-17T10:17:56;19.00;78.30
60495;DHT22;46342;49.046;11.920;2022-10-17T10:20:34;19.00;78.10
60495;DHT22;46342;49.046;11.920;2022-10-17T10:23:11;19.20;78.20
60495;DHT22;46342;49.046;11.920;2022-10-17T10:25:41;19.20;77.70
60495;DHT22;46342;49.046;11.920;2022-10-17T10:28:14;19.30;77.90
60495;DHT22;46342;49.046;11.920;2022-10-17T10:30:46;19.40;77.80
60495;DHT22;46342;49.046;11.920;2022-10-17T10:33:12;19.50;77.70
60495;DHT22;46342;49.046;11.920;2022-10-17T10:35:38;19.60;77.90
60495;DHT22;46342;49.046;11.920;2022-10-17T10:38:09;19.70;77.80
60495;DHT22;46342;49.046;11.920;2022-10-17T10:40:45;19.80;77.70
60495;DHT22;46342;49.046;11.920;2022-10-17T10:46:27;20.00;77.40
60495;DHT22;46342;49.046;11.920;2022-10-17T10:48:55;20.10;77.10
60495;DHT22;46342;49.046;11.920;2022-10-17T10:51:43;20.20;77.20
60495;DHT22;46342;49.046;11.920;2022-10-17T10:54:28;20.30;76.70
60495;DHT22;46342;49.046;11.920;2022-10-17T10:56:59;20.40;76.00
60495;DHT22;46342;49.046;11.920;2022-10-17T11:07:16;20.60;75.70
60495;DHT22;46342;49.046;11.920;2022-10-17T11:10:02;20.70;76.30
60495;DHT22;46342;49.046;11.920;2022-10-17T11:12:33;20.80;76.20
60495;DHT22;46342;49.046;11.920;2022-10-17T11:15:12;20.90;76.60
60495;DHT22;46342;49.046;11.920;2022-10-17T11:17:49;21.00;76.50
60495;DHT22;46342;49.046;11.920;2022-10-17T11:23:32;21.10;75.70
60495;DHT22;46342;49.046;11.920;2022-10-17T11:26:04;21.30;75.10
60495;DHT22;46342;49.046;11.920;2022-10-17T11:28:31;21.40;75.70
60495;DHT22;46342;49.046;11.920;2022-10-17T11:31:05;21.40;75.60
60495;DHT22;46342;49.046;11.920;2022-10-17T11:36:20;21.60;75.50
60495;DHT22;46342;49.046;11.920;2022-10-17T11:39:00;21.70;74.60
60495;DHT22;46342;49.046;11.920;2022-10-17T11:44:04;21.80;73.70
60495;DHT22;46342;49.046;11.920;2022-10-17T11:46:33;21.90;74.60
60495;DHT22;46342;49.046;11.920;2022-10-17T11:49:13;21.90;73.20
60495;DHT22;46342;49.046;11.920;2022-10-17T11:51:53;22.00;71.70
60495;DHT22;46342;49.046;11.920;2022-10-17T11:54:36;22.00;71.50
60495;DHT22;46342;49.046;11.920;2022-10-17T12:02:42;22.10;70.70
60495;DHT22;46342;49.046;11.920;2022-10-17T12:07:50;22.20;71.30
60495;DHT22;46342;49.046;11.920;2022-10-17T12:15:54;22.30;70.80
60495;DHT22;46342;49.046;11.920;2022-10-17T12:18:24;22.20;71.90
60495;DHT22;46342;49.046;11.920;2022-10-17T12:21:00;22.30;71.60
60495;DHT22;46342;49.046;11.920;2022-10-17T12:23:29;22.40;71.00
60495;DHT22;46342;49.046;11.920;2022-10-17T12:26:06;22.40;72.10
60495;DHT22;46342;49.046;11.920;2022-10-17T12:31:20;22.50;72.70
60495;DHT22;46342;49.046;11.920;2022-10-17T12:34:03;22.50;71.30
60495;DHT22;46342;49.046;11.920;2022-10-17T12:46:51;22.60;69.20
60495;DHT22;46342;49.046;11.920;2022-10-17T12:49:40;22.60;69.50
60495;DHT22;46342;49.046;11.920;2022-10-17T13:02:39;22.60;69.20
60495;DHT22;46342;49.046;11.920;2022-10-17T13:05:15;22.60;70.10
60495;DHT22;46342;49.046;11.920;2022-10-17T13:07:43;22.60;69.20
60495;DHT22;46342;49.046;11.920;2022-10-17T13:10:25;22.60;69.60
60495;DHT22;46342;49.046;11.920;2022-10-17T13:13:04;22.70;68.60
60495;DHT22;46342;49.046;11.920;2022-10-17T13:15:30;22.60;68.90
60495;DHT22;46342;49.046;11.920;2022-10-17T13:17:58;22.60;69.50
60495;DHT22;46342;49.046;11.920;2022-10-17T13:20:25;22.60;69.20
60495;DHT22;46342;49.046;11.920;2022-10-17T13:22:52;22.60;69.20
60495;DHT22;46342;49.046;11.920;2022-10-17T13:25:19;22.60;69.40
60495;DHT22;46342;49.046;11.920;2022-10-17T13:27:46;22.60;69.30
60495;DHT22;46342;49.046;11.920;2022-10-17T13:30:26;22.60;69.40
60495;DHT22;46342;49.046;11.920;2022-10-17T13:32:53;22.70;68.20
60495;DHT22;46342;49.046;11.920;2022-10-17T13:35:29;22.60;69.10
60495;DHT22;46342;49.046;11.920;2022-10-17T13:37:55;22.70;68.40
60495;DHT22;46342;49.046;11.920;2022-10-17T13:40:29;22.60;69.00
60495;DHT22;46342;49.046;11.920;2022-10-17T13:42:57;22.70;68.20
60495;DHT22;46342;49.046;11.920;2022-10-17T13:45:32;22.70;69.70
60495;DHT22;46342;49.046;11.920;2022-10-17T13:48:06;22.70;68.40
60495;DHT22;46342;49.046;11.920;2022-10-17T13:50:41;22.70;68.20
60495;DHT22;46342;49.046;11.920;2022-10-17T13:53:19;22.70;68.10
60495;DHT22;46342;49.046;11.920;2022-10-17T13:56:24;22.70;68.00
60495;DHT22;46342;49.046;11.920;2022-10-17T13:58:51;22.80;67.80
60495;DHT22;46342;49.046;11.920;2022-10-17T14:01:18;22.80;69.10
60495;DHT22;46342;49.046;11.920;2022-10-17T14:03:45;22.80;68.70
60495;DHT22;46342;49.046;11.920;2022-10-17T14:06:18;22.80;68.70
60495;DHT22;46342;49.046;11.920;2022-10-17T14:08:48;22.90;67.90
60495;DHT22;46342;49.046;11.920;2022-10-17T14:11:39;22.90;68.40
60495;DHT22;46342;49.046;11.920;2022-10-17T14:14:23;22.90;67.60
60495;DHT22;46342;49.046;11.920;2022-10-17T14:16:50;22.90;67.80
60495;DHT22;46342;49.046;11.920;2022-10-17T14:22:13;22.90;68.60
60495;DHT22;46342;49.046;11.920;2022-10-17T14:24:39;23.00;68.00
60495;DHT22;46342;49.046;11.920;2022-10-17T14:27:51;23.00;68.70
60495;DHT22;46342;49.046;11.920;2022-10-17T14:32:55;23.10;68.00
60495;DHT22;46342;49.046;11.920;2022-10-17T14:35:21;23.10;68.30
60495;DHT22;46342;49.046;11.920;2022-10-17T14:37:49;23.10;68.60
60495;DHT22;46342;49.046;11.920;2022-10-17T14:40:21;23.20;68.40
60495;DHT22;46342;49.046;11.920;2022-10-17T14:42:51;23.20;68.00
60495;DHT22;46342;49.046;11.920;2022-10-17T14:45:46;23.20;68.40
60495;DHT22;46342;49.046;11.920;2022-10-17T14:48:16;23.30;67.20
60495;DHT22;46342;49.046;11.920;2022-10-17T14:51:16;23.30;67.60
60495;DHT22;46342;49.046;11.920;2022-10-17T14:53:43;23.30;67.10
60495;DHT22;46342;49.046;11.920;2022-10-17T14:56:25;23.30;68.10
60495;DHT22;46342;49.046;11.920;2022-10-17T14:58:51;23.30;69.10
60495;DHT22;46342;49.046;11.920;2022-10-17T15:01:17;23.30;68.40
60495;DHT22;46342;49.046;11.920;2022-10-17T15:03:43;23.30;69.10
60495;DHT22;46342;49.046;11.920;2022-10-17T15:06:29;23.30;68.20
60495;DHT22;46342;49.046;11.920;2022-10-17T15:08:56;23.40;66.80
60495;DHT22;46342;49.046;11.920;2022-10-17T15:11:22;23.40;68.00
60495;DHT22;46342;49.046;11.920;2022-10-17T15:13:47;23.40;68.00
60495;DHT22;46342;49.046;11.920;2022-10-17T15:16:25;23.40;68.00
60495;DHT22;46342;49.046;11.920;2022-10-17T15:18:52;23.40;67.00
60495;DHT22;46342;49.046;11.920;2022-10-17T15:21:21;23.40;67.60
60495;DHT22;46342;49.046;11.920;2022-10-17T15:23:47;23.40;67.60
60495;DHT22;46342;49.046;11.920;2022-10-17T15:26:20;23.40;67.40
60495;DHT22;46342;49.046;11.920;2022-10-17T15:28:46;23.40;66.80
60495;DHT22;46342;49.046;11.920;2022-10-17T15:31:16;23.30;67.10
60495;DHT22;46342;49.046;11.920;2022-10-17T15:33:42;23.30;67.00
60495;DHT22;46342;49.046;11.920;2022-10-17T15:36:27;23.30;67.20
60495;DHT22;46342;49.046;11.920;2022-10-17T15:38:56;23.30;66.50
60495;DHT22;46342;49.046;11.920;2022-10-17T15:41:24;23.20;66.80
60495;DHT22;46342;49.046;11.920;2022-10-17T15:43:49;23.20;66.80
60495;DHT22;46342;49.046;11.920;2022-10-17T15:46:21;23.20;66.40
60495;DHT22;46342;49.046;11.920;2022-10-17T15:48:48;23.20;66.40
60495;DHT22;46342;49.046;11.920;2022-10-17T15:51:14;23.10;66.60
60495;DHT22;46342;49.046;11.920;2022-10-17T15:53:40;23.00;66.60
60495;DHT22;46342;49.046;11.920;2022-10-17T15:56:07;23.00;66.60
60495;DHT22;46342;49.046;11.920;2022-10-17T15:58:39;22.90;66.40
60495;DHT22;46342;49.046;11.920;2022-10-17T16:01:05;22.90;66.10
60495;DHT22;46342;49.046;11.920;2022-10-17T16:03:32;22.80;66.30
60495;DHT22;46342;49.046;11.920;2022-10-17T16:05:57;22.70;66.10
60495;DHT22;46342;49.046;11.920;2022-10-17T16:08:24;22.60;66.10
60495;DHT22;46342;49.046;11.920;2022-10-17T16:10:50;22.60;66.10
60495;DHT22;46342;49.046;11.920;2022-10-17T16:13:18;22.50;65.90
60495;DHT22;46342;49.046;11.920;2022-10-17T16:15:44;22.40;65.80
60495;DHT22;46342;49.046;11.920;2022-10-17T16:18:09;22.30;65.80
60495;DHT22;46342;49.046;11.920;2022-10-17T16:20:35;22.30;65.90
60495;DHT22;46342;49.046;11.920;2022-10-17T16:23:02;22.20;66.70
60495;DHT22;46342;49.046;11.920;2022-10-17T16:25:29;22.00;65.60
60495;DHT22;46342;49.046;11.920;2022-10-17T16:27:57;22.00;65.60
60495;DHT22;46342;49.046;11.920;2022-10-17T16:30:24;21.90;65.50
60495;DHT22;46342;49.046;11.920;2022-10-17T16:32:51;21.80;65.40
60495;DHT22;46342;49.046;11.920;2022-10-17T16:35:23;21.80;65.50
60495;DHT22;46342;49.046;11.920;2022-10-17T16:37:49;21.70;65.30
60495;DHT22;46342;49.046;11.920;2022-10-17T16:40:15;21.60;65.50
60495;DHT22;46342;49.046;11.920;2022-10-17T16:42:41;21.50;65.40
60495;DHT22;46342;49.046;11.920;2022-10-17T16:45:07;21.40;65.30
60495;DHT22;46342;49.046;11.920;2022-10-17T16:47:32;21.30;65.30
60495;DHT22;46342;49.046;11.920;2022-10-17T16:49:58;21.20;65.20
60495;DHT22;46342;49.046;11.920;2022-10-17T16:52:24;21.10;65.20
60495;DHT22;46342;49.046;11.920;2022-10-17T16:54:50;21.10;65.20
60495;DHT22;46342;49.046;11.920;2022-10-17T16:57:15;21.00;65.30
60495;DHT22;46342;49.046;11.920;2022-10-17T16:59:41;21.00;65.30
60495;DHT22;46342;49.046;11.920;2022-10-17T17:02:09;20.90;65.30
60495;DHT22;46342;49.046;11.920;2022-10-17T17:04:35;20.80;65.10
60495;DHT22;46342;49.046;11.920;2022-10-17T17:07:01;20.70;65.20
60495;DHT22;46342;49.046;11.920;2022-10-17T17:09:26;20.70;65.40
60495;DHT22;46342;49.046;11.920;2022-10-17T17:11:52;20.50;65.20
60495;DHT22;46342;49.046;11.920;2022-10-17T17:14:17;20.50;65.30
60495;DHT22;46342;49.046;11.920;2022-10-17T17:16:43;20.40;65.40
60495;DHT22;46342;49.046;11.920;2022-10-17T17:19:11;20.30;65.40
60495;DHT22;46342;49.046;11.920;2022-10-17T17:21:38;20.30;65.40
60495;DHT22;46342;49.046;11.920;2022-10-17T17:24:04;20.20;65.50
60495;DHT22;46342;49.046;11.920;2022-10-17T17:26:33;20.10;65.40
60495;DHT22;46342;49.046;11.920;2022-10-17T17:29:02;20.10;65.40
60495;DHT22;46342;49.046;11.920;2022-10-17T17:31:30;20.00;65.50
60495;DHT22;46342;49.046;11.920;2022-10-17T17:33:57;19.90;65.50
60495;DHT22;46342;49.046;11.920;2022-10-17T17:36:32;19.80;65.50